KDAY

James M Cox Dayton International Airport

Dayton, Ohio, USA
METAR KDAY 211556Z 33003KT 10SM FEW250 M17/M22 A3059 RMK AO2 SNB04E21 SLP384 P0000 T11671222
Observed Flight Rules
Jan-21 @ 15:56 UTC (46 minutes ago) Visual Flight Rules
Wind Visibility Clouds
330° at 3 knots 10 miles
  • Few at 25,000' AGL
Temperatures Readings Precipitation
Current -17°C / 1°F
Dewpoint -22°C / -8°F
Humidity 65%
Altimeter 30.59" Hg
Pressure 1038.4 hPa
Elevation 305
Current Rain 0.01
METAR KDAY 211556Z 33003KT 10SM FEW250 M17/M22 A3059 RMK AO2 SNB04E21 SLP384 P0000 T11671222
Observed Flight Rules
Jan-21 @ 15:56 UTC
(46 minutes ago)
VFR
Wind Visibility
330° at 3 knots 10 miles
Clouds
  • Few at 25,000' AGL
Temperature Dewpoint
-17°C / 1°F -22°C / -8°F
Humidity Altimeter Pressure
65% 30.59" Hg 1038.4 hPa
Current Rain
0.01